Time;durP1;ratioP1;P1;durP2;ratioP2;P2;SDS_P1;SDS_P2;PMS_P1;PMS_P2;Temp;Humidity;BMP_temperature;BMP_pressure;BME280_temperature;BME280_humidity;BME280_pressure;Samples;Min_cycle;Max_cycle;Signal;HPM_P1;HPM_P2
2022/06/13 00:00:40;;;;;;;10.43;5.32;;;16.10;99.90;;;;;;4950508;29;20209;-87
2022/06/13 00:03:07;;;;;;;7.75;4.53;;;16.10;99.90;;;;;;4931583;29;20706;-85
2022/06/13 00:05:36;;;;;;;10.85;4.50;;;16.10;99.90;;;;;;4929670;29;20206;-85
2022/06/13 00:08:05;;;;;;;9.40;4.55;;;16.10;99.90;;;;;;4933202;29;20214;-89
2022/06/13 00:10:33;;;;;;;10.20;4.47;;;16.10;99.90;;;;;;4932686;29;20194;-86
2022/06/13 00:12:59;;;;;;;10.85;4.97;;;16.00;99.90;;;;;;4933225;29;20241;-86
2022/06/13 00:15:26;;;;;;;9.52;4.85;;;16.00;99.90;;;;;;4933323;29;20965;-86
2022/06/13 00:17:53;;;;;;;12.90;5.00;;;16.00;99.90;;;;;;4933463;29;20280;-86
2022/06/13 00:20:20;;;;;;;16.13;5.32;;;16.00;99.90;;;;;;4933228;29;20198;-86
2022/06/13 00:22:47;;;;;;;11.30;5.50;;;16.00;99.90;;;;;;4934033;29;20253;-85
2022/06/13 00:25:17;;;;;;;15.52;6.03;;;16.00;99.90;;;;;;4945439;29;20221;-86
2022/06/13 00:27:44;;;;;;;15.73;5.82;;;16.00;99.90;;;;;;4939197;29;20216;-84
2022/06/13 00:30:12;;;;;;;14.10;5.75;;;16.00;99.90;;;;;;4926068;29;20233;-86
2022/06/13 00:32:39;;;;;;;13.30;5.47;;;16.00;99.90;;;;;;4941312;29;20213;-86
2022/06/13 00:35:07;;;;;;;11.50;4.45;;;16.10;99.90;;;;;;4953013;29;20529;-86
2022/06/13 00:37:34;;;;;;;16.40;5.50;;;16.10;99.90;;;;;;4936320;29;20213;-87
2022/06/13 00:40:01;;;;;;;17.17;5.97;;;16.00;99.90;;;;;;4935887;29;20214;-85
2022/06/13 00:42:30;;;;;;;15.75;6.03;;;16.10;99.90;;;;;;4943037;29;20229;-85
2022/06/13 00:45:11;;;;;;;12.73;4.97;;;16.00;99.90;;;;;;4952432;29;20229;-84
2022/06/13 00:47:40;;;;;;;14.63;5.72;;;16.00;99.90;;;;;;4953291;29;20471;-85
2022/06/13 00:50:11;;;;;;;15.80;4.55;;;16.00;99.90;;;;;;4939009;29;20244;-86
2022/06/13 00:52:44;;;;;;;9.23;4.00;;;16.00;99.90;;;;;;4936513;29;20204;-83
2022/06/13 00:55:14;;;;;;;13.32;4.40;;;16.00;99.90;;;;;;4936405;29;20622;-85
2022/06/13 00:57:42;;;;;;;17.88;5.03;;;16.00;99.90;;;;;;4936186;29;20206;-87
2022/06/13 01:00:13;;;;;;;13.00;4.93;;;16.00;99.90;;;;;;4929613;29;20875;-87
2022/06/13 01:02:43;;;;;;;11.40;3.95;;;16.00;99.90;;;;;;4955618;29;20236;-87
2022/06/13 01:05:11;;;;;;;8.88;4.90;;;16.00;99.90;;;;;;4946759;29;20304;-85
2022/06/13 01:07:38;;;;;;;10.68;4.35;;;15.90;99.90;;;;;;4953961;29;20211;-87
2022/06/13 01:12:52;;;;;;;8.77;4.00;;;16.00;99.90;;;;;;4956208;29;20196;-88
2022/06/13 01:15:43;;;;;;;11.65;4.32;;;16.00;99.90;;;;;;4951172;29;20204;-87
2022/06/13 01:18:21;;;;;;;8.45;3.55;;;15.90;99.90;;;;;;4956627;29;20205;-85
2022/06/13 01:21:02;;;;;;;12.65;3.85;;;16.00;99.90;;;;;;4941689;29;20210;-87
2022/06/13 01:24:12;;;;;;;9.57;3.80;;;15.90;99.90;;;;;;4936961;29;20574;-88
2022/06/13 01:27:06;;;;;;;9.85;3.80;;;16.00;99.90;;;;;;4937595;29;20225;-87
2022/06/13 01:29:53;;;;;;;14.48;4.10;;;16.10;99.90;;;;;;4935920;29;20300;-86
2022/06/13 01:33:01;;;;;;;10.18;3.58;;;16.00;99.90;;;;;;4939025;29;20220;-90
2022/06/13 01:35:43;;;;;;;11.00;4.10;;;16.00;99.90;;;;;;4954905;29;20205;-86
2022/06/13 01:38:25;;;;;;;12.18;3.95;;;16.10;99.90;;;;;;4953631;29;20604;-87
2022/06/13 01:41:04;;;;;;;10.95;3.78;;;16.10;99.90;;;;;;4954803;29;20197;-87
2022/06/13 01:43:46;;;;;;;12.77;3.92;;;16.10;99.90;;;;;;4955206;29;20275;-86
2022/06/13 01:46:22;;;;;;;10.65;3.70;;;16.10;99.90;;;;;;4955193;29;20313;-86
2022/06/13 01:48:58;;;;;;;11.80;4.05;;;16.10;99.90;;;;;;4955867;29;20221;-83
2022/06/13 01:51:29;;;;;;;14.20;3.83;;;16.00;99.90;;;;;;4947951;29;20232;-86
2022/06/13 01:54:04;;;;;;;6.63;3.25;;;16.00;99.90;;;;;;4935520;29;20306;-87
2022/06/13 01:56:37;;;;;;;15.27;4.00;;;16.00;99.90;;;;;;4935101;29;20611;-86
2022/06/13 01:59:16;;;;;;;9.07;3.42;;;16.00;99.90;;;;;;4935809;29;20323;-85
2022/06/13 02:01:47;;;;;;;6.40;3.00;;;15.90;99.90;;;;;;4936416;29;20202;-86
2022/06/13 02:04:23;;;;;;;9.35;3.30;;;15.90;99.90;;;;;;4936585;29;20426;-88
2022/06/13 02:06:58;;;;;;;7.70;3.00;;;15.80;99.90;;;;;;4935947;29;20220;-83
2022/06/13 02:09:29;;;;;;;8.52;3.22;;;15.90;99.90;;;;;;4934478;29;20301;-85
2022/06/13 02:11:57;;;;;;;10.10;3.03;;;15.90;99.90;;;;;;4935174;29;20198;-85
2022/06/13 02:14:36;;;;;;;8.75;3.13;;;16.00;99.90;;;;;;4935478;29;20273;-85
2022/06/13 02:17:08;;;;;;;6.70;2.83;;;16.00;99.90;;;;;;4935681;29;20214;-83
2022/06/13 02:19:43;;;;;;;8.32;2.95;;;16.00;99.90;;;;;;4935070;29;20210;-87
2022/06/13 02:22:12;;;;;;;7.43;2.80;;;16.00;99.90;;;;;;4933492;29;20229;-86
2022/06/13 02:24:43;;;;;;;7.95;2.95;;;15.90;99.90;;;;;;4935258;29;20230;-85
2022/06/13 02:27:12;;;;;;;7.63;2.93;;;15.90;99.90;;;;;;4936134;29;20216;-87
2022/06/13 02:29:42;;;;;;;10.13;2.90;;;15.80;99.90;;;;;;4948305;29;20213;-87
2022/06/13 02:32:13;;;;;;;6.43;2.70;;;15.80;99.90;;;;;;4953599;29;20196;-85
2022/06/13 02:34:47;;;;;;;7.00;2.63;;;15.80;99.90;;;;;;4963693;29;20227;-85
2022/06/13 02:37:21;;;;;;;8.70;2.70;;;15.70;99.90;;;;;;4962620;29;20661;-85
2022/06/13 02:39:53;;;;;;;5.57;2.28;;;15.70;99.90;;;;;;4958794;29;20272;-86
2022/06/13 02:42:24;;;;;;;6.85;2.03;;;15.70;99.90;;;;;;4954826;29;20204;-87
2022/06/13 02:45:00;;;;;;;9.17;2.80;;;15.70;99.90;;;;;;4936976;29;20221;-86
2022/06/13 02:47:34;;;;;;;7.65;2.60;;;15.70;99.90;;;;;;4935607;29;20221;-87
2022/06/13 02:50:06;;;;;;;6.43;1.90;;;15.70;99.90;;;;;;4953050;29;20295;-85
2022/06/13 02:52:39;;;;;;;5.77;2.30;;;15.70;99.90;;;;;;4949365;29;20204;-84
2022/06/13 02:55:09;;;;;;;6.93;2.40;;;15.70;99.90;;;;;;4952899;29;20201;-85
2022/06/13 02:57:52;;;;;;;4.80;2.05;;;15.70;99.90;;;;;;4938091;29;20214;-87
2022/06/13 03:00:29;;;;;;;7.00;2.30;;;15.70;99.90;;;;;;4935556;29;20217;-89
2022/06/13 03:03:05;;;;;;;7.15;2.47;;;15.60;99.90;;;;;;4935566;29;20217;-88
2022/06/13 03:05:44;;;;;;;6.13;1.92;;;15.60;99.90;;;;;;4934697;29;20221;-86
2022/06/13 03:08:24;;;;;;;8.33;2.20;;;15.60;99.90;;;;;;4935220;29;20261;-90
2022/06/13 03:11:01;;;;;;;6.05;2.13;;;15.50;99.90;;;;;;4935358;29;20186;-88
2022/06/13 03:13:32;;;;;;;10.93;2.90;;;15.50;99.90;;;;;;4934833;29;20689;-88
2022/06/13 03:16:06;;;;;;;8.30;2.80;;;15.50;99.90;;;;;;4934620;29;20198;-86
2022/06/13 03:18:40;;;;;;;7.22;2.10;;;15.50;99.90;;;;;;4937302;29;20186;-88
2022/06/13 03:21:13;;;;;;;6.43;2.27;;;15.50;99.90;;;;;;4954122;29;20209;-85
2022/06/13 03:23:45;;;;;;;8.07;2.40;;;15.50;99.90;;;;;;4954273;29;20213;-86
2022/06/13 03:26:16;;;;;;;9.13;2.17;;;15.40;99.90;;;;;;4953083;29;20232;-85
2022/06/13 03:28:49;;;;;;;7.13;3.28;;;15.50;99.90;;;;;;4953680;29;20209;-86
2022/06/13 03:31:20;;;;;;;9.33;2.53;;;15.50;99.90;;;;;;4938294;29;20564;-87
2022/06/13 03:33:52;;;;;;;7.47;2.40;;;15.40;99.90;;;;;;4934027;29;20194;-87
2022/06/13 03:36:25;;;;;;;9.23;2.50;;;15.40;99.90;;;;;;4944883;29;20547;-88
2022/06/13 03:38:56;;;;;;;6.97;2.80;;;15.50;99.90;;;;;;4955515;29;20805;-88
2022/06/13 03:41:28;;;;;;;8.77;2.57;;;15.50;99.90;;;;;;4953290;29;20811;-84
2022/06/13 03:43:59;;;;;;;5.03;2.70;;;15.50;99.90;;;;;;4952383;29;20687;-85
2022/06/13 03:46:34;;;;;;;6.93;2.60;;;15.50;99.90;;;;;;4932982;29;20197;-86
2022/06/13 03:49:04;;;;;;;6.88;2.67;;;15.50;99.90;;;;;;4933155;29;20311;-86
2022/06/13 03:51:39;;;;;;;8.03;2.10;;;15.50;99.90;;;;;;4936068;29;20289;-83
2022/06/13 03:54:11;;;;;;;8.63;2.10;;;15.50;99.90;;;;;;4952772;29;20241;-85
2022/06/13 03:56:43;;;;;;;4.47;2.20;;;15.50;99.90;;;;;;4952330;29;20606;-89
2022/06/13 03:59:14;;;;;;;5.67;1.83;;;15.60;99.90;;;;;;4936288;29;20232;-82
2022/06/13 04:01:45;;;;;;;8.47;2.43;;;15.60;99.90;;;;;;4933724;29;20503;-82
2022/06/13 04:04:18;;;;;;;7.13;1.60;;;15.60;99.90;;;;;;4933229;29;20217;-88
2022/06/13 04:06:47;;;;;;;6.23;1.60;;;15.60;99.90;;;;;;4947740;29;20201;-87
2022/06/13 04:09:17;;;;;;;6.07;2.20;;;15.60;99.90;;;;;;4953474;29;20292;-85
2022/06/13 04:12:29;;;;;;;7.22;2.20;;;15.60;99.90;;;;;;4952895;29;20205;-85
2022/06/13 04:15:20;;;;;;;7.20;1.80;;;15.60;99.90;;;;;;4908602;29;20778;-85
2022/06/13 04:17:59;;;;;;;5.53;1.90;;;15.60;99.90;;;;;;4947758;29;20292;-85
2022/06/13 04:20:30;;;;;;;6.20;2.10;;;15.60;99.90;;;;;;4951337;29;20192;-89
2022/06/13 04:23:07;;;;;;;5.60;1.80;;;15.60;99.90;;;;;;4952762;29;20940;-89
2022/06/13 04:25:40;;;;;;;7.43;2.07;;;15.60;99.90;;;;;;4953080;28;20801;-88
2022/06/13 04:28:13;;;;;;;5.70;1.73;;;15.60;99.90;;;;;;4954960;29;20211;-88
2022/06/13 04:30:42;;;;;;;3.78;1.77;;;15.70;99.90;;;;;;4934478;29;20205;-87
2022/06/13 04:33:14;;;;;;;5.67;2.00;;;15.70;99.90;;;;;;4937143;29;20202;-87
2022/06/13 04:35:42;;;;;;;8.43;1.70;;;15.70;99.90;;;;;;4938910;29;20285;-88
2022/06/13 04:38:12;;;;;;;7.47;2.10;;;15.70;99.90;;;;;;4955569;29;20296;-85
2022/06/13 04:40:43;;;;;;;5.83;1.83;;;15.70;99.90;;;;;;4957390;29;20205;-89
2022/06/13 04:43:12;;;;;;;7.80;1.80;;;15.70;99.90;;;;;;4956548;29;20304;-90
2022/06/13 04:45:49;;;;;;;6.50;2.50;;;15.70;99.90;;;;;;4956061;29;20221;-87
2022/06/13 04:48:16;;;;;;;6.03;2.10;;;15.70;99.90;;;;;;4955760;29;20228;-84
2022/06/13 04:50:47;;;;;;;6.97;1.70;;;15.80;99.90;;;;;;4954452;29;20205;-88
2022/06/13 04:53:21;;;;;;;5.47;1.70;;;15.80;99.90;;;;;;4941260;29;20352;-85
2022/06/13 04:55:51;;;;;;;9.30;2.97;;;15.80;99.90;;;;;;4933278;29;20221;-87
2022/06/13 04:58:27;;;;;;;5.70;1.80;;;15.90;99.90;;;;;;4934865;29;20210;-88
2022/06/13 05:01:00;;;;;;;6.90;2.33;;;15.90;99.90;;;;;;4938293;29;20205;-87
2022/06/13 05:03:30;;;;;;;7.43;2.10;;;15.90;99.90;;;;;;4937344;29;20693;-90
2022/06/13 05:06:01;;;;;;;8.52;2.80;;;15.90;99.90;;;;;;4938474;29;20609;-86
2022/06/13 05:08:32;;;;;;;6.60;2.17;;;16.00;99.90;;;;;;4938270;29;20206;-89
2022/06/13 05:11:08;;;;;;;6.72;2.10;;;16.00;99.90;;;;;;4938953;29;20767;-88
2022/06/13 05:13:36;;;;;;;6.77;2.13;;;16.00;99.90;;;;;;4954619;29;20207;-87
2022/06/13 05:16:14;;;;;;;6.43;2.43;;;15.90;99.90;;;;;;4957169;29;20209;-88
2022/06/13 05:18:54;;;;;;;8.18;2.03;;;15.90;99.90;;;;;;4957016;29;20215;-84
2022/06/13 05:21:41;;;;;;;6.32;1.80;;;15.90;99.90;;;;;;4956063;29;20213;-86
2022/06/13 05:24:42;;;;;;;11.43;2.80;;;15.90;99.90;;;;;;4957123;29;20633;-89
2022/06/13 05:27:09;;;;;;;10.40;2.20;;;15.90;99.90;;;;;;4956752;29;20193;-84
2022/06/13 05:29:36;;;;;;;7.93;1.75;;;15.90;99.90;;;;;;4957061;29;20211;-86
2022/06/13 05:32:05;;;;;;;7.22;2.55;;;15.90;99.90;;;;;;4958525;29;20624;-86
2022/06/13 05:34:36;;;;;;;6.03;2.20;;;15.90;99.90;;;;;;4944854;29;20600;-87
2022/06/13 05:37:04;;;;;;;6.50;1.33;;;16.00;99.90;;;;;;4940271;29;20305;-87
2022/06/13 05:39:34;;;;;;;4.65;1.52;;;16.00;99.90;;;;;;4938323;29;20206;-89
2022/06/13 05:42:01;;;;;;;4.30;1.40;;;16.00;99.90;;;;;;4952696;29;20233;-86
2022/06/13 05:44:28;;;;;;;9.13;1.70;;;16.00;99.90;;;;;;4971556;29;20251;-87
2022/06/13 05:46:55;;;;;;;7.25;1.63;;;16.10;99.90;;;;;;4962646;29;20206;-88
2022/06/13 05:49:22;;;;;;;7.05;1.70;;;16.20;99.90;;;;;;4946001;29;20324;-89
2022/06/13 05:51:49;;;;;;;7.95;1.80;;;16.30;99.90;;;;;;4946911;29;20229;-87
2022/06/13 05:54:16;;;;;;;5.85;2.00;;;16.40;99.90;;;;;;4942350;29;20242;-84
2022/06/13 05:56:44;;;;;;;3.97;1.48;;;16.40;99.90;;;;;;4954972;29;20213;-88
2022/06/13 05:59:11;;;;;;;5.47;1.33;;;16.40;99.90;;;;;;4956867;29;20202;-85
2022/06/13 06:01:38;;;;;;;4.88;1.50;;;16.80;99.90;;;;;;4953967;29;20606;-90
2022/06/13 06:04:06;;;;;;;6.85;1.55;;;17.10;99.90;;;;;;4952038;29;20221;-91
2022/06/13 06:06:35;;;;;;;7.07;1.70;;;17.40;99.90;;;;;;4934318;29;20436;-92
2022/06/13 06:09:05;;;;;;;7.32;2.03;;;17.60;99.90;;;;;;4932279;29;20216;-92
2022/06/13 06:11:32;;;;;;;5.38;1.50;;;17.90;99.90;;;;;;4935280;29;20210;-87
2022/06/13 06:14:00;;;;;;;4.70;1.35;;;17.70;99.90;;;;;;4935587;29;20257;-87
2022/06/13 06:16:29;;;;;;;5.15;1.52;;;17.40;99.90;;;;;;4935353;29;20229;-88
2022/06/13 06:18:56;;;;;;;5.88;1.55;;;17.30;99.90;;;;;;4937011;29;20210;-87
2022/06/13 06:21:24;;;;;;;5.60;1.48;;;17.60;99.90;;;;;;4942109;29;20205;-89
2022/06/13 06:23:51;;;;;;;9.77;1.95;;;18.10;99.90;;;;;;4955473;29;20219;-89
2022/06/13 06:26:24;;;;;;;5.85;1.77;;;18.60;99.90;;;;;;4955266;29;20216;-87
2022/06/13 06:28:51;;;;;;;6.35;1.50;;;18.90;99.90;;;;;;4954954;29;20284;-88
2022/06/13 06:31:20;;;;;;;3.83;1.35;;;18.90;99.90;;;;;;4954769;29;20249;-85
2022/06/13 06:33:47;;;;;;;6.68;1.65;;;18.60;99.90;;;;;;4953978;29;20310;-89
2022/06/13 06:36:15;;;;;;;7.68;1.92;;;18.30;99.90;;;;;;4939355;29;20260;-86
2022/06/13 06:38:43;;;;;;;7.63;1.73;;;18.00;99.90;;;;;;4955540;29;20669;-90
2022/06/13 06:41:10;;;;;;;6.47;1.60;;;17.80;99.90;;;;;;4947121;29;20212;-88
2022/06/13 06:43:37;;;;;;;4.60;1.50;;;17.80;99.90;;;;;;4941816;29;20209;-85
2022/06/13 06:46:05;;;;;;;6.90;1.98;;;17.70;99.90;;;;;;4944890;29;20244;-89
2022/06/13 06:48:34;;;;;;;8.02;1.70;;;17.60;99.90;;;;;;4944579;29;20759;-86
2022/06/13 06:51:19;;;;;;;5.60;1.80;;;17.90;99.90;;;;;;4934993;29;20214;-88
2022/06/13 07:02:04;;;;;;;7.60;1.83;;;19.00;99.90;;;;;;4940196;29;20216;-87
2022/06/13 07:04:32;;;;;;;6.03;1.65;;;18.70;99.90;;;;;;4938664;29;20229;-88
2022/06/13 07:06:59;;;;;;;6.13;2.38;;;18.80;99.90;;;;;;4940283;29;20218;-86
2022/06/13 07:09:26;;;;;;;7.90;1.55;;;19.00;99.90;;;;;;4941504;29;20237;-88
2022/06/13 07:11:56;;;;;;;4.85;1.40;;;18.80;99.90;;;;;;4941979;29;20269;-87
2022/06/13 07:14:25;;;;;;;6.18;1.70;;;18.90;99.90;;;;;;4938503;29;20209;-90
2022/06/13 07:16:52;;;;;;;4.10;1.60;;;19.10;99.90;;;;;;4937811;29;20217;-83
2022/06/13 07:19:20;;;;;;;5.03;1.80;;;19.40;99.90;;;;;;4939397;29;20228;-90
2022/06/13 07:21:48;;;;;;;6.30;1.35;;;19.80;99.90;;;;;;4936643;29;20210;-89
2022/06/13 07:24:15;;;;;;;9.23;1.63;;;20.20;99.90;;;;;;4936641;29;20245;-86
2022/06/13 07:26:43;;;;;;;6.75;1.73;;;20.20;99.90;;;;;;4945188;29;20288;-88
2022/06/13 07:29:10;;;;;;;4.82;1.60;;;20.20;99.90;;;;;;4943769;29;20221;-90
2022/06/13 07:31:40;;;;;;;6.53;1.70;;;20.60;99.90;;;;;;4942878;29;20530;-85
2022/06/13 07:34:12;;;;;;;4.60;1.50;;;20.80;99.90;;;;;;4940965;29;20241;-86
2022/06/13 07:36:39;;;;;;;5.20;1.63;;;21.20;99.90;;;;;;4938473;29;20201;-87
2022/06/13 07:39:07;;;;;;;6.30;1.92;;;21.40;99.90;;;;;;4936312;29;20216;-82
2022/06/13 07:41:35;;;;;;;4.80;1.52;;;21.70;99.90;;;;;;4938011;29;20240;-89
2022/06/13 07:44:01;;;;;;;4.00;1.30;;;21.20;99.90;;;;;;4942186;29;20248;-89
2022/06/13 07:46:30;;;;;;;4.18;1.40;;;20.60;99.90;;;;;;4935747;29;20544;-87
2022/06/13 07:48:58;;;;;;;5.07;1.63;;;20.00;99.90;;;;;;4947786;29;20232;-83
2022/06/13 07:51:26;;;;;;;8.35;1.83;;;19.90;99.90;;;;;;4937518;29;20229;-86
2022/06/13 07:53:53;;;;;;;8.40;2.88;;;19.90;99.90;;;;;;4922434;29;20289;-88
2022/06/13 07:56:24;;;;;;;6.25;1.77;;;20.10;99.90;;;;;;4939289;29;20214;-89
2022/06/13 07:58:52;;;;;;;6.00;1.70;;;20.20;99.90;;;;;;4945305;29;20221;-90
2022/06/13 08:01:20;;;;;;;7.22;2.00;;;20.30;99.90;;;;;;4937900;29;20198;-87
2022/06/13 08:03:47;;;;;;;6.40;1.65;;;20.60;99.90;;;;;;4934981;29;20220;-90
2022/06/13 08:06:14;;;;;;;4.32;1.77;;;20.80;99.90;;;;;;4933542;29;20222;-88
2022/06/13 08:08:42;;;;;;;7.00;1.50;;;20.70;99.90;;;;;;4933926;29;20228;-92
2022/06/13 08:11:10;;;;;;;5.22;1.33;;;20.60;99.90;;;;;;4932578;29;20222;-85
2022/06/13 08:13:40;;;;;;;6.35;1.77;;;20.50;99.90;;;;;;4939671;29;20252;-92
2022/06/13 08:16:08;;;;;;;6.60;1.75;;;20.40;99.90;;;;;;4943092;29;20210;-89
2022/06/13 08:18:36;;;;;;;5.60;1.50;;;20.30;99.90;;;;;;4939959;29;20220;-87
2022/06/13 08:21:04;;;;;;;6.28;1.80;;;20.50;99.90;;;;;;4941613;29;20221;-88
2022/06/13 08:23:32;;;;;;;4.30;1.60;;;20.90;99.90;;;;;;4949594;29;20533;-91
2022/06/13 08:25:59;;;;;;;6.80;1.50;;;21.10;99.90;;;;;;4939190;29;20237;-85
2022/06/13 08:28:27;;;;;;;6.32;1.40;;;20.80;99.90;;;;;;4937647;29;20205;-84
2022/06/13 08:30:59;;;;;;;5.53;1.60;;;21.00;99.90;;;;;;4942354;29;20217;-89
2022/06/13 08:33:26;;;;;;;7.25;1.70;;;21.00;99.90;;;;;;4942932;29;20227;-85
2022/06/13 08:35:53;;;;;;;6.35;1.58;;;20.70;99.90;;;;;;4935345;29;20224;-89
2022/06/13 08:38:21;;;;;;;5.55;1.60;;;20.60;99.90;;;;;;4931280;29;20206;-87
2022/06/13 08:40:56;;;;;;;6.30;1.63;;;20.80;99.90;;;;;;4932227;29;20214;-87
2022/06/13 08:43:47;;;;;;;3.65;1.60;;;21.40;99.90;;;;;;4931869;29;20210;-88
2022/06/13 08:46:23;;;;;;;6.13;1.60;;;21.50;99.90;;;;;;4931509;29;20237;-85
2022/06/13 08:49:00;;;;;;;5.93;1.65;;;21.70;99.90;;;;;;4931789;29;20229;-88
2022/06/13 08:51:37;;;;;;;5.47;1.55;;;21.60;99.90;;;;;;4948331;29;20609;-85
2022/06/13 08:54:08;;;;;;;6.78;1.73;;;21.50;99.90;;;;;;4949997;29;20243;-89
2022/06/13 08:56:37;;;;;;;5.07;1.75;;;21.70;99.90;;;;;;4943532;29;20199;-85
2022/06/13 09:01:56;;;;;;;5.85;1.75;;;21.70;99.90;;;;;;4929828;29;20265;-86
2022/06/13 09:04:27;;;;;;;5.65;1.98;;;21.80;99.90;;;;;;4929868;29;20201;-88
2022/06/13 09:07:00;;;;;;;3.90;1.83;;;22.10;99.90;;;;;;4931826;29;20230;-91
2022/06/13 09:09:33;;;;;;;5.57;1.42;;;22.40;99.90;;;;;;4931340;29;20210;-93
2022/06/13 09:12:06;;;;;;;4.57;1.48;;;22.30;99.90;;;;;;4932018;29;20216;-88
2022/06/13 09:14:35;;;;;;;5.03;1.42;;;22.20;99.90;;;;;;4934958;29;20213;-93
2022/06/13 09:17:09;;;;;;;6.57;1.83;;;22.30;99.90;;;;;;4935447;29;20225;-91
2022/06/13 09:19:43;;;;;;;6.97;1.80;;;22.20;99.90;;;;;;4950085;29;20567;-86
2022/06/13 09:22:18;;;;;;;6.47;1.67;;;22.60;99.90;;;;;;4953990;29;20219;-87
2022/06/13 09:24:52;;;;;;;6.07;1.52;;;23.10;99.90;;;;;;4953184;29;20192;-88
2022/06/13 09:27:25;;;;;;;6.10;1.75;;;23.40;99.90;;;;;;4952766;29;20526;-88
2022/06/13 09:29:59;;;;;;;6.22;1.98;;;22.90;99.90;;;;;;4937955;29;20399;-84
2022/06/13 09:32:33;;;;;;;5.35;1.70;;;22.50;99.90;;;;;;4941067;29;20209;-90
2022/06/13 09:35:09;;;;;;;5.13;1.63;;;22.60;99.90;;;;;;4955496;29;20470;-89
2022/06/13 09:37:42;;;;;;;7.25;1.95;;;22.60;99.90;;;;;;4950237;29;20210;-82
2022/06/13 09:40:13;;;;;;;7.60;1.98;;;22.80;99.90;;;;;;4928885;29;20198;-94
2022/06/13 09:42:55;;;;;;;5.70;1.33;;;22.90;99.90;;;;;;4937956;29;20670;-86
2022/06/13 09:45:35;;;;;;;6.97;1.50;;;22.60;99.90;;;;;;4948023;29;20610;-90
2022/06/13 09:48:16;;;;;;;5.68;1.70;;;22.50;99.90;;;;;;4955237;29;20201;-86
2022/06/13 09:50:50;;;;;;;7.03;1.90;;;22.40;99.90;;;;;;4955539;29;20201;-84
2022/06/13 09:53:32;;;;;;;6.07;1.48;;;22.70;99.90;;;;;;4945496;29;20260;-87
2022/06/13 09:56:04;;;;;;;4.68;1.30;;;22.70;99.90;;;;;;4942619;29;20210;-87
2022/06/13 09:58:52;;;;;;;4.45;1.77;;;22.60;99.90;;;;;;4937665;29;20311;-89
2022/06/13 10:01:28;;;;;;;3.90;1.27;;;22.50;99.90;;;;;;4936963;29;20998;-89
2022/06/13 10:04:05;;;;;;;7.22;1.65;;;22.30;99.90;;;;;;4938524;29;20216;-85
2022/06/13 10:06:40;;;;;;;4.22;1.45;;;22.10;99.90;;;;;;4952916;29;20323;-91
2022/06/13 10:09:23;;;;;;;4.72;1.55;;;22.00;99.90;;;;;;4954149;29;20213;-85
2022/06/13 10:11:59;;;;;;;6.07;1.73;;;22.10;99.90;;;;;;4953254;29;20224;-87
2022/06/13 10:14:47;;;;;;;12.55;2.72;;;22.20;99.90;;;;;;4954450;29;20217;-88
2022/06/13 10:17:28;;;;;;;4.97;1.30;;;22.40;99.90;;;;;;4944337;29;20209;-80
2022/06/13 10:20:04;;;;;;;4.68;1.77;;;22.70;99.90;;;;;;4935824;29;20209;-92
2022/06/13 10:22:39;;;;;;;9.07;2.20;;;22.90;99.90;;;;;;4935469;29;20221;-90
2022/06/13 10:25:21;;;;;;;5.80;1.52;;;22.50;99.90;;;;;;4937477;29;20217;-86
2022/06/13 10:28:05;;;;;;;6.85;1.67;;;22.50;99.90;;;;;;4954370;29;20279;-89
2022/06/13 10:30:41;;;;;;;4.53;1.85;;;22.50;99.90;;;;;;4952577;29;20285;-87
2022/06/13 10:33:24;;;;;;;4.97;1.75;;;22.80;99.90;;;;;;4954841;29;20205;-83
2022/06/13 10:36:02;;;;;;;4.63;1.73;;;23.20;99.90;;;;;;4940858;29;20486;-86
2022/06/13 10:38:58;;;;;;;7.95;1.83;;;23.10;99.90;;;;;;4933919;29;20316;-90
2022/06/13 10:41:26;;;;;;;6.07;1.75;;;22.80;99.90;;;;;;4943547;29;20484;-83
2022/06/13 10:43:55;;;;;;;8.38;1.75;;;22.10;99.90;;;;;;4955686;29;20213;-89
2022/06/13 10:46:22;;;;;;;8.52;1.95;;;21.40;99.90;;;;;;4955432;29;20239;-85
2022/06/13 10:48:54;;;;;;;8.10;2.20;;;21.40;99.90;;;;;;4946667;29;20680;-89
2022/06/13 10:51:24;;;;;;;6.22;1.92;;;21.40;99.90;;;;;;4935097;29;20198;-94
2022/06/13 10:53:57;;;;;;;4.00;1.52;;;21.50;99.90;;;;;;4943596;29;20240;-90
2022/06/13 10:56:28;;;;;;;6.82;1.80;;;21.80;99.90;;;;;;4954634;29;20196;-88
2022/06/13 10:58:58;;;;;;;5.15;2.00;;;22.10;99.90;;;;;;4953611;29;20555;-90
2022/06/13 11:01:28;;;;;;;6.35;2.40;;;22.20;99.90;;;;;;4953599;29;20346;-86
2022/06/13 11:04:06;;;;;;;6.03;1.85;;;22.20;99.90;;;;;;4948444;29;20201;-89
2022/06/13 11:06:44;;;;;;;5.32;2.08;;;22.50;99.90;;;;;;4932141;29;20650;-92
2022/06/13 11:09:23;;;;;;;6.15;2.10;;;22.60;99.90;;;;;;4934532;29;20217;-86
2022/06/13 11:11:56;;;;;;;7.45;1.67;;;22.20;99.90;;;;;;4935845;29;20749;-89
2022/06/13 11:22:37;;;;;;;7.18;1.90;;;22.30;99.90;;;;;;4937626;29;20869;-86
2022/06/13 11:23:10;;;;;;;10.73;2.38;;;21.40;99.90;;;;;;4974268;28;20184;-87
2022/06/13 11:25:37;;;;;;;7.35;2.00;;;21.50;99.90;;;;;;4959622;28;20213;-90
2022/06/13 11:28:09;;;;;;;7.53;1.85;;;21.60;99.90;;;;;;4954433;28;20264;-92
2022/06/13 11:30:46;;;;;;;5.93;2.00;;;21.60;99.90;;;;;;4959104;28;20192;-85
2022/06/13 11:33:36;;;;;;;8.57;2.10;;;21.80;99.90;;;;;;4965187;28;20204;-86
2022/06/13 11:36:21;;;;;;;8.10;2.28;;;21.90;99.90;;;;;;4970130;28;20215;-89
2022/06/13 11:38:56;;;;;;;6.90;1.88;;;21.80;99.90;;;;;;4974721;28;20543;-88
2022/06/13 11:41:25;;;;;;;7.03;2.00;;;21.80;99.90;;;;;;4975371;28;20675;-89
2022/06/13 11:43:58;;;;;;;8.27;1.90;;;21.50;99.90;;;;;;4973916;28;20212;-86
2022/06/13 11:46:40;;;;;;;10.98;2.45;;;21.50;99.90;;;;;;4972180;28;20319;-84
2022/06/13 11:49:28;;;;;;;7.65;1.75;;;21.40;99.90;;;;;;4981118;28;20217;-86
2022/06/13 11:51:58;;;;;;;9.05;2.15;;;21.40;99.90;;;;;;4966626;28;20216;-89
2022/06/13 11:54:31;;;;;;;6.35;2.05;;;21.30;99.90;;;;;;4969546;28;20296;-88
2022/06/13 11:57:22;;;;;;;6.70;1.80;;;21.50;99.90;;;;;;4954473;29;20236;-86
2022/06/13 11:59:53;;;;;;;11.40;2.22;;;21.80;99.90;;;;;;4956439;29;20240;-92
2022/06/13 12:02:24;;;;;;;9.52;2.13;;;22.20;99.90;;;;;;4953784;29;20283;-91
2022/06/13 12:04:55;;;;;;;7.63;2.28;;;22.40;99.90;;;;;;4940204;29;20198;-87
2022/06/13 12:07:24;;;;;;;6.22;1.85;;;22.40;99.90;;;;;;4960345;29;20236;-89
2022/06/13 12:09:57;;;;;;;5.47;1.75;;;21.90;99.90;;;;;;4965691;29;20244;-86
2022/06/13 12:12:27;;;;;;;6.75;1.90;;;21.50;99.90;;;;;;4954855;29;20248;-89
2022/06/13 12:14:55;;;;;;;5.35;1.95;;;21.20;99.90;;;;;;4957411;29;20201;-90
2022/06/13 12:17:28;;;;;;;7.25;2.38;;;21.00;99.90;;;;;;4954041;28;20431;-90
2022/06/13 12:20:01;;;;;;;9.50;2.35;;;21.10;99.90;;;;;;4947443;29;20245;-91
2022/06/13 12:22:34;;;;;;;34.83;6.45;;;21.30;99.90;;;;;;4932072;29;20229;-86
2022/06/13 12:25:12;;;;;;;19.48;3.42;;;21.60;99.90;;;;;;4932806;29;20214;-90
2022/06/13 12:27:49;;;;;;;9.15;2.15;;;21.70;99.90;;;;;;4933769;29;20226;-91
2022/06/13 12:30:35;;;;;;;9.07;2.55;;;21.60;99.90;;;;;;4931848;29;20301;-89
2022/06/13 12:33:12;;;;;;;6.93;2.00;;;21.70;99.90;;;;;;4928089;29;20210;-90
2022/06/13 12:35:59;;;;;;;107.32;20.95;;;21.70;99.90;;;;;;4948190;29;20209;-88
2022/06/13 12:38:47;;;;;;;10.73;2.78;;;21.70;99.90;;;;;;4944193;29;20240;-86
2022/06/13 12:41:25;;;;;;;8.82;2.40;;;21.30;99.90;;;;;;4941993;29;20296;-86
2022/06/13 12:44:11;;;;;;;9.82;2.30;;;21.40;99.90;;;;;;4931310;29;20261;-85
2022/06/13 12:46:52;;;;;;;9.70;2.25;;;21.30;99.90;;;;;;4929083;29;20311;-86
2022/06/13 12:49:48;;;;;;;10.90;2.40;;;21.30;99.90;;;;;;4933181;29;20234;-85
2022/06/13 12:52:27;;;;;;;6.82;2.05;;;21.10;99.90;;;;;;4940772;29;20259;-83
2022/06/13 12:55:00;;;;;;;8.90;2.33;;;21.20;99.90;;;;;;4955166;29;20197;-87
2022/06/13 12:57:47;;;;;;;8.68;2.30;;;21.40;99.90;;;;;;4945230;28;20212;-90
2022/06/13 13:00:20;;;;;;;6.95;2.08;;;21.50;99.90;;;;;;4934663;29;20232;-87
2022/06/13 13:03:15;;;;;;;8.55;1.73;;;21.50;99.90;;;;;;4947742;29;20209;-88
2022/06/13 13:05:50;;;;;;;11.15;2.70;;;21.50;99.90;;;;;;4954074;29;20213;-83
2022/06/13 13:08:34;;;;;;;8.32;2.80;;;21.40;99.90;;;;;;4955976;29;20189;-84
2022/06/13 13:11:17;;;;;;;10.82;2.78;;;21.00;99.90;;;;;;4952217;29;20207;-87
2022/06/13 13:13:51;;;;;;;7.45;2.20;;;21.10;99.90;;;;;;4953757;29;20194;-83
2022/06/13 13:16:31;;;;;;;11.45;2.20;;;21.10;99.90;;;;;;4943850;29;20320;-83
2022/06/13 13:19:23;;;;;;;10.93;2.00;;;21.00;99.90;;;;;;4934122;29;20580;-82
2022/06/13 13:21:54;;;;;;;11.00;2.78;;;21.30;99.90;;;;;;4934293;29;20616;-81
2022/06/13 13:24:43;;;;;;;9.13;2.63;;;21.50;99.90;;;;;;4932762;29;20253;-83
2022/06/13 13:27:13;;;;;;;8.40;2.58;;;21.20;99.90;;;;;;4932644;29;20883;-84
2022/06/13 13:29:52;;;;;;;8.32;1.98;;;21.20;99.90;;;;;;4941539;29;20214;-89
2022/06/13 13:32:29;;;;;;;10.70;2.28;;;21.00;99.90;;;;;;4933425;29;20206;-86
2022/06/13 13:35:06;;;;;;;9.70;2.33;;;20.70;99.90;;;;;;4935541;29;20285;-89
2022/06/13 13:37:36;;;;;;;12.95;2.45;;;20.70;99.90;;;;;;4938318;29;20201;-84